Data for 06/01/2018

Time Sea-Level Adjusted Pressure Absolute Pressure Temperature Relative Humidity Dew Point   
(mb) (inHg) (mb) (inHg) (C) (F) (%) (C) (F)
00:05 1013 29.91 842 24.86 9.3 48.7 90 7.7 45.9
00:10 1012 29.88 842 24.86 9.2 48.6 90 7.7 45.9
00:15 1012 29.88 842 24.86 9.2 48.5 90 7.7 45.8
00:20 1012 29.88 842 24.86 9.1 48.4 91 7.6 45.7
00:25 1012 29.88 842 24.86 9.2 48.5 91 7.8 46
00:30 1012 29.88 841 24.83 9.3 48.8 90 7.9 46.1
00:35 1012 29.88 842 24.86 9.3 48.8 90 7.7 45.9
00:40 1013 29.91 842 24.86 9.2 48.6 89 7.5 45.5
00:45 1013 29.91 842 24.86 9.2 48.6 88 7.4 45.2
00:50 1013 29.91 842 24.86 9.2 48.6 88 7.4 45.3
00:55 1013 29.91 843 24.89 9.2 48.6 89 7.4 45.4
01:00 1013 29.91 843 24.89 9.1 48.3 89 7.3 45.2
01:05 1013 29.91 843 24.89 9 48.1 89 7.3 45.2
01:10 1013 29.91 842 24.86 9 48.1 89 7.3 45.1
01:15 1013 29.91 842 24.86 8.9 48 89 7.2 45
01:20 1013 29.91 842 24.86 8.8 47.8 89 7.1 44.8
01:25 1013 29.91 842 24.86 8.7 47.6 89 7 44.6
01:30 1013 29.91 842 24.86 8.6 47.5 90 7 44.6
01:35 1013 29.91 842 24.86 8.7 47.6 90 7.1 44.8
01:40 1013 29.91 842 24.86 8.7 47.6 90 7.1 44.7
01:45 1013 29.91 842 24.86 8.7 47.6 90 7 44.7
01:50 1013 29.91 842 24.86 8.6 47.6 89 7 44.6
01:55 1013 29.91 842 24.86 8.6 47.5 89 6.9 44.5
02:00 1013 29.91 842 24.86 8.6 47.5 89 6.9 44.4
02:05 1013 29.91 842 24.86 8.5 47.3 89 6.8 44.2
02:10 1013 29.91 842 24.86 8.3 46.9 89 6.7 44
02:15 1013 29.91 842 24.86 8.2 46.7 90 6.6 44
02:20 1013 29.91 842 24.86 8.3 46.9 90 6.8 44.2
02:25 1013 29.91 842 24.86 8.4 47 90 6.9 44.3
02:30 1013 29.91 842 24.86 8.5 47.3 90 7 44.5
02:35 1013 29.91 842 24.86 8.5 47.3 89 6.9 44.3
02:40 1013 29.91 842 24.86 8.5 47.2 89 6.8 44.2
02:45 1013 29.91 842 24.86 8.5 47.2 89 6.7 44.1
02:50 1013 29.91 842 24.86 8.5 47.3 88 6.7 44
02:55 1013 29.91 842 24.86 8.5 47.3 88 6.6 43.9
03:00 1013 29.91 842 24.86 8.5 47.4 88 6.7 44.1
03:05 1013 29.91 842 24.86 8.6 47.5 89 6.8 44.3
03:10 1013 29.91 842 24.86 8.6 47.5 89 6.8 44.3
03:15 1013 29.91 842 24.86 8.6 47.4 89 6.8 44.3
03:20 1013 29.91 842 24.86 8.5 47.4 89 6.8 44.3
03:25 1013 29.91 842 24.86 8.5 47.3 89 6.8 44.2
03:30 1013 29.91 842 24.86 8.3 47 89 6.7 44
03:35 1013 29.91 842 24.86 8.3 46.9 89 6.6 43.9
03:40 1013 29.91 842 24.86 8.3 47 89 6.6 43.9
03:45 1013 29.91 842 24.86 8.3 46.9 89 6.6 43.8
03:50 1013 29.91 842 24.86 8.2 46.7 89 6.5 43.6
03:55 1013 29.91 842 24.86 8 46.5 90 6.4 43.6
04:00 1013 29.91 842 24.86 8 46.5 90 6.4 43.6
04:05 1013 29.91 842 24.86 8.1 46.5 90 6.4 43.6
04:10 1013 29.91 842 24.86 8.1 46.6 90 6.5 43.7
04:15 1013 29.91 842 24.86 8.2 46.8 90 6.7 44
04:20 1013 29.91 842 24.86 8.3 46.9 90 6.7 44
04:25 1013 29.91 842 24.86 8.2 46.8 90 6.6 43.9
04:30 1013 29.91 842 24.86 8.3 46.9 90 6.6 44
04:35 1013 29.91 842 24.86 8.2 46.8 89 6.5 43.7
04:40 1013 29.91 843 24.89 8.1 46.6 89 6.5 43.6
04:45 1013 29.91 843 24.89 8.1 46.6 89 6.5 43.6
04:50 1014 29.94 843 24.89 8.1 46.5 89 6.4 43.6
04:55 1014 29.94 843 24.89 8.1 46.5 90 6.5 43.6
05:00 1014 29.94 843 24.89 8.1 46.5 90 6.5 43.6
05:05 1014 29.94 843 24.89 8.1 46.6 90 6.5 43.8
05:10 1014 29.94 843 24.89 8.2 46.7 90 6.6 43.8
05:15 1014 29.94 843 24.89 8.1 46.6 90 6.6 43.8
05:20 1014 29.94 843 24.89 8.1 46.5 90 6.5 43.7
05:25 1014 29.94 843 24.89 8 46.5 90 6.4 43.6
05:30 1014 29.94 843 24.89 8 46.4 90 6.5 43.7
05:35 1014 29.94 843 24.89 8.1 46.6 90 6.6 43.9
05:40 1014 29.94 843 24.89 8.2 46.8 90 6.7 44
05:45 1014 29.94 843 24.89 8.2 46.7 90 6.5 43.8
05:50 1014 29.94 843 24.89 8.1 46.6 90 6.5 43.7
05:55 1014 29.94 843 24.89 8 46.4 90 6.4 43.5
06:00 1014 29.94 843 24.89 8 46.3 90 6.4 43.6
06:05 1014 29.94 843 24.89 8.1 46.5 90 6.5 43.7
06:10 1014 29.94 843 24.89 8.1 46.6 90 6.5 43.8
06:15 1014 29.94 843 24.89 8.1 46.6 89 6.5 43.6
06:20 1014 29.94 843 24.89 8.1 46.6 89 6.4 43.6
06:25 1014 29.94 843 24.89 8.1 46.7 89 6.4 43.6
06:30 1014 29.94 843 24.89 8.2 46.7 89 6.4 43.6
06:35 1014 29.94 844 24.92 8.2 46.7 88 6.3 43.4
06:40 1014 29.94 844 24.92 8.2 46.7 88 6.3 43.4
06:45 1014 29.94 844 24.92 8.3 46.9 88 6.4 43.5
06:50 1015 29.97 844 24.92 8.4 47 88 6.5 43.6
06:55 1015 29.97 844 24.92 8.4 47.2 88 6.6 43.8
07:00 1015 29.97 844 24.92 8.5 47.2 88 6.6 44
07:05 1015 29.97 844 24.92 8.5 47.4 88 6.7 44
07:10 1015 29.97 844 24.92 8.5 47.4 88 6.7 44.1
07:15 1015 29.97 844 24.92 8.6 47.5 89 6.9 44.3
07:20 1015 29.97 844 24.92 8.6 47.6 89 6.9 44.4
07:25 1015 29.97 844 24.92 8.6 47.5 88 6.8 44.2
07:30 1015 29.97 844 24.92 8.7 47.7 88 6.9 44.4
07:35 1015 29.97 844 24.92 8.8 47.9 88 6.9 44.4
07:40 1015 29.97 844 24.92 8.9 48 87 6.9 44.4
07:45 1015 29.97 844 24.92 8.8 47.9 86 6.6 43.9
07:50 1015 29.97 844 24.92 8.8 47.8 86 6.7 44
07:55 1015 29.97 844 24.92 8.7 47.6 87 6.6 43.9
08:00 1015 29.97 844 24.92 8.7 47.6 86 6.5 43.7
08:05 1015 29.97 844 24.92 8.7 47.6 86 6.5 43.7
08:10 1015 29.97 844 24.92 8.6 47.4 86 6.3 43.4
08:15 1015 29.97 844 24.92 8.6 47.5 85 6.3 43.3
08:20 1015 29.97 844 24.92 8.6 47.5 84 6 42.9
08:25 1015 29.97 844 24.92 8.6 47.6 84 6.2 43.1
08:30 1015 29.97 845 24.95 8.8 47.8 82 5.9 42.7
08:35 1015 29.97 845 24.95 8.9 48.1 84 6.3 43.3
08:40 1015 29.97 845 24.95 9.1 48.5 84 6.5 43.8
08:45 1015 29.97 845 24.95 9.3 48.7 84 6.6 43.9
08:50 1015 29.97 845 24.95 9.3 48.7 84 6.7 44.1
08:55 1016 30 845 24.95 9.3 48.7 84 6.6 44
09:00 1016 30 845 24.95 9.1 48.4 85 6.7 44.1
09:05 1016 30 845 24.95 9.3 48.7 85 7 44.6
09:10 1016 30 845 24.95 9.4 48.9 84 6.8 44.2
09:15 1016 30 845 24.95 9.5 49.2 82 6.7 44.1
09:20 1016 30 845 24.95 9.5 49 83 6.8 44.2
09:25 1016 30 845 24.95 9.4 48.9 83 6.7 44
09:30 1016 30 845 24.95 9.6 49.3 83 6.8 44.3
09:35 1016 30 845 24.95 9.9 49.8 83 7.1 44.7
09:40 1016 30 845 24.95 9.9 49.9 80 6.6 43.9
09:45 1016 30 845 24.95 10 50 79 6.5 43.6
09:50 1016 30 845 24.95 10.4 50.7 79 6.8 44.3
09:55 1016 30 845 24.95 10.7 51.3 78 7 44.7
10:00 1016 30 845 24.95 11 51.8 74 6.6 43.9
10:05 1016 30 845 24.95 11.1 52.1 74 6.6 44
10:10 1016 30 845 24.95 11.7 53.1 68 6.1 43
10:15 1016 30 845 24.95 12.2 53.9 72 7.3 45.1
10:20 1016 30 845 24.95 12.2 53.9 73 7.5 45.6
10:25 1016 30 845 24.95 12.3 54.1 73 7.6 45.7
10:30 1016 30 845 24.95 12.1 53.8 72 7.3 45.2
10:35 1016 30 845 24.95 11.5 52.6 74 7.1 44.7
10:40 1016 30 845 24.95 8.8 47.9 82 6 42.7
10:45 1016 30 846 24.98 7.3 45.2 88 5.5 41.8
10:50 1017 30.03 846 24.98 7.2 44.9 89 5.5 41.8
10:55 1017 30.03 846 24.98 7.2 44.9 90 5.6 42
11:00 1017 30.03 846 24.98 7.1 44.8 89 5.4 41.8
11:05 1017 30.03 846 24.98 6.8 44.2 89 5.1 41.1
11:10 1018 30.06 847 25.01 6.7 44.1 89 5 40.9
11:15 1018 30.06 847 25.01 6.6 43.8 87 4.5 40.1
11:20 1018 30.06 847 25.01 6.4 43.5 85 4 39.2
11:25 1018 30.06 847 25.01 6.3 43.3 84 3.8 38.8
11:30 1018 30.06 848 25.04 6.3 43.3 86 4.1 39.4
11:35 1018 30.06 848 25.04 6.3 43.4 86 4.2 39.5
11:40 1018 30.06 848 25.04 6.3 43.4 86 4.2 39.5
11:45 1018 30.06 848 25.04 6.3 43.4 86 4.2 39.6
11:50 1019 30.09 848 25.04 6.4 43.5 85 4.1 39.3
11:55 1019 30.09 848 25.04 6.4 43.6 87 4.4 39.9
12:00 1019 30.09 848 25.04 6.4 43.6 85 4.1 39.5
12:05 1019 30.09 848 25.04 6.4 43.5 85 4 39.2
12:10 1019 30.09 848 25.04 6.5 43.6 84 3.9 39
12:15 1019 30.09 848 25.04 6.2 43.1 84 3.7 38.7
12:20 1019 30.09 848 25.04 5.9 42.7 84 3.5 38.3
12:25 1019 30.09 848 25.04 5.9 42.6 85 3.5 38.3
12:30 1019 30.09 848 25.04 5.9 42.7 83 3.3 38
12:35 1019 30.09 848 25.04 5.9 42.6 83 3.2 37.8
12:40 1019 30.09 848 25.04 6 42.8 86 3.8 38.8
12:45 1019 30.09 848 25.04 6.4 43.5 83 3.7 38.6
12:50 1019 30.09 848 25.04 6.2 43.2 81 3.3 37.9
12:55 1019 30.09 848 25.04 6.2 43.2 83 3.5 38.2
13:00 1019 30.09 848 25.04 6.2 43.2 83 3.5 38.4
13:05 1019 30.09 848 25.04 6.4 43.4 82 3.5 38.3
13:10 1019 30.09 848 25.04 6.3 43.3 80 3.1 37.6
13:15 1019 30.09 848 25.04 6.6 43.8 78 3.1 37.6
13:20 1019 30.09 848 25.04 7 44.6 79 3.6 38.4
13:25 1019 30.09 848 25.04 7.6 45.8 75 3.6 38.5
13:30 1019 30.09 848 25.04 8.3 46.9 71 3.4 38.1
13:35 1019 30.09 848 25.04 8.8 47.8 67 3.1 37.6
13:40 1019 30.09 848 25.04 8.7 47.7 67 2.9 37.2
13:45 1019 30.09 848 25.04 8.6 47.4 67 2.8 37.1
13:50 1019 30.09 848 25.04 8.9 48.1 66 2.9 37.1
13:55 1019 30.09 848 25.04 9.1 48.5 65 3 37.4
14:00 1019 30.09 849 25.07 9.2 48.6 62 2.2 36
14:05 1019 30.09 849 25.07 9.3 48.8 63 2.7 36.8
14:10 1019 30.09 849 25.07 9.8 49.6 64 3.2 37.8
14:15 1020 30.12 849 25.07 9.5 49.2 65 3.3 38
14:20 1020 30.12 849 25.07 9.5 49.1 67 3.7 38.6
14:25 1020 30.12 849 25.07 9.6 49.2 69 4.2 39.5
14:30 1020 30.12 849 25.07 9 48.1 74 4.6 40.2
14:35 1020 30.12 849 25.07 9 48.1 74 4.6 40.2
14:40 1020 30.12 849 25.07 8.5 47.3 76 4.5 40.1
14:45 1020 30.12 849 25.07 8.2 46.7 81 5.1 41.2
14:50 1020 30.12 849 25.07 8.5 47.3 79 5.1 41.1
14:55 1020 30.12 849 25.07 8.7 47.7 78 5.1 41.1
15:00 1020 30.12 849 25.07 8.6 47.5 76 4.6 40.2
15:05 1020 30.12 849 25.07 8.3 47 79 4.9 40.9
15:10 1020 30.12 849 25.07 8.1 46.6 77 4.4 39.9
15:15 1020 30.12 849 25.07 8 46.4 76 4 39.2
15:20 1020 30.12 849 25.07 8.2 46.7 75 4 39.1
15:25 1020 30.12 849 25.07 8.9 48 71 3.9 39
15:30 1020 30.12 849 25.07 9.4 49 73 4.8 40.7
15:35 1020 30.12 850 25.1 9.7 49.4 72 4.8 40.7
15:40 1020 30.12 850 25.1 9.9 49.8 71 4.8 40.7
15:45 1021 30.15 850 25.1 9.6 49.3 71 4.7 40.4
15:50 1021 30.15 850 25.1 8.9 48.1 72 4.3 39.7
15:55 1021 30.15 850 25.1 8.9 48.1 71 4 39.3
16:00 1021 30.15 850 25.1 9 48.1 70 3.8 38.8
16:05 1021 30.15 850 25.1 8.9 48.1 73 4.4 40
16:10 1021 30.15 850 25.1 7.6 45.6 81 4.5 40.2
16:15 1021 30.15 850 25.1 6.3 43.3 84 3.7 38.6
16:20 1021 30.15 850 25.1 6.2 43.1 85 3.8 38.8
16:25 1021 30.15 851 25.13 6.2 43.2 81 3.2 37.8
16:30 1021 30.15 851 25.13 6.3 43.3 82 3.4 38.2
16:35 1021 30.15 851 25.13 6.4 43.5 78 2.8 37.1
16:40 1021 30.15 850 25.1 6.6 43.8 76 2.7 36.8
16:45 1021 30.15 850 25.1 7.1 44.7 73 2.7 36.8
16:50 1021 30.15 851 25.13 7.6 45.7 75 3.4 38.1
16:55 1022 30.18 851 25.13 7.1 44.9 77 3.5 38.3
17:00 1022 30.18 851 25.13 6.9 44.5 80 3.6 38.5
17:05 1022 30.18 851 25.13 7.2 45 77 3.5 38.4
17:10 1022 30.18 851 25.13 7.1 44.7 79 3.7 38.7
17:15 1022 30.18 851 25.13 7.4 45.3 78 3.7 38.7
17:20 1022 30.18 851 25.13 7.5 45.4 80 4.2 39.5
17:25 1022 30.18 851 25.13 7.2 45 77 3.5 38.3
17:30 1022 30.18 851 25.13 7 44.6 81 4 39.3
17:35 1022 30.18 851 25.13 7.2 45 82 4.3 39.7
17:40 1022 30.18 852 25.16 7.4 45.3 79 4 39.1
17:45 1022 30.18 852 25.16 7.5 45.4 80 4.2 39.6
17:50 1023 30.21 852 25.16 7.3 45.1 78 3.7 38.6
17:55 1023 30.21 852 25.16 7.2 44.9 78 3.6 38.5
18:00 1023 30.21 852 25.16 7 44.6 77 3.3 37.9
18:05 1023 30.21 852 25.16 6.6 44 78 3.2 37.7
18:10 1023 30.21 852 25.16 6.4 43.6 79 3.1 37.6
18:15 1023 30.21 852 25.16 6.6 43.8 78 3.1 37.5
18:20 1022 30.18 852 25.16 6.3 43.3 80 3.1 37.6
18:25 1022 30.18 852 25.16 6.1 43 81 3.1 37.6
18:30 1022 30.18 852 25.16 6.2 43.1 79 2.8 37.1
18:35 1022 30.18 852 25.16 6.4 43.5 77 2.7 36.9
18:40 1023 30.21 852 25.16 6.6 43.9 79 3.2 37.8
18:45 1023 30.21 852 25.16 6.8 44.2 77 3.1 37.6
18:50 1023 30.21 852 25.16 6.9 44.3 75 2.7 36.9
18:55 1023 30.21 852 25.16 6.9 44.4 77 3.1 37.7
19:00 1023 30.21 852 25.16 7 44.5 78 3.3 38
19:05 1023 30.21 852 25.16 7.1 44.8 79 3.8 38.8
19:10 1023 30.21 852 25.16 7.4 45.3 75 3.3 37.9
19:15 1023 30.21 852 25.16 7.9 46.1 73 3.3 37.9
19:20 1023 30.21 852 25.16 8.2 46.7 68 2.6 36.6
19:25 1023 30.21 852 25.16 8.3 46.9 70 3.1 37.6
19:30 1023 30.21 852 25.16 8.4 47.2 69 3.2 37.7
19:35 1023 30.21 852 25.16 8.5 47.3 72 3.7 38.7
19:40 1023 30.21 852 25.16 8.1 46.6 76 4.2 39.6
19:45 1023 30.21 852 25.16 7.4 45.3 78 3.9 38.9
19:50 1023 30.21 852 25.16 7.3 45.2 79 4 39.1
19:55 1023 30.21 852 25.16 7.5 45.5 78 3.9 39
20:00 1023 30.21 853 25.19 7.7 45.9 78 4.2 39.6
20:05 1023 30.21 853 25.19 8 46.3 79 4.5 40.1
20:10 1023 30.21 852 25.16 8 46.4 79 4.5 40.1
20:15 1023 30.21 852 25.16 8 46.4 77 4.2 39.6
20:20 1023 30.21 853 25.19 8 46.4 75 3.9 39
20:25 1023 30.21 853 25.19 8.1 46.7 75 4 39.2
20:30 1023 30.21 853 25.19 8.3 46.9 70 3.2 37.8
20:35 1023 30.21 853 25.19 8.5 47.3 68 2.9 37.3
20:40 1023 30.21 853 25.19 8.6 47.5 68 3.1 37.5
20:45 1024 30.24 853 25.19 8.5 47.3 68 3 37.4
20:50 1024 30.24 853 25.19 8.4 47.1 68 2.8 37.1
20:55 1024 30.24 853 25.19 8.3 46.9 70 3.2 37.7
21:00 1024 30.24 853 25.19 8.2 46.7 71 3.2 37.8
21:05 1024 30.24 853 25.19 8.1 46.5 70 2.9 37.2
21:10 1024 30.24 853 25.19 8 46.4 67 2.2 36
21:15 1024 30.24 853 25.19 8.2 46.7 65 2 35.5
21:20 1024 30.24 853 25.19 8.3 46.9 64 1.9 35.5
21:25 1024 30.24 853 25.19 8.2 46.7 65 2 35.6
21:30 1024 30.24 853 25.19 8.1 46.7 64 1.9 35.4
21:35 1024 30.24 853 25.19 8.2 46.7 65 1.9 35.4
21:40 1024 30.24 853 25.19 8.1 46.6 65 2 35.5
21:45 1024 30.24 853 25.19 8 46.4 66 2 35.6
21:50 1024 30.24 853 25.19 7.9 46.2 65 1.7 35
21:55 1024 30.24 853 25.19 7.9 46.2 64 1.6 34.8
22:00 1024 30.24 854 25.22 7.9 46.1 64 1.6 34.9
22:05 1024 30.24 854 25.22 7.8 46.1 64 1.5 34.6
22:10 1024 30.24 854 25.22 7.8 46.1 64 1.4 34.6
22:15 1024 30.24 854 25.22 7.8 46.1 64 1.4 34.5
22:20 1025 30.27 854 25.22 7.8 46 64 1.4 34.5
22:25 1025 30.27 854 25.22 7.8 46.1 63 1.2 34.2
22:30 1025 30.27 854 25.22 7.9 46.2 62 1.2 34.1
22:35 1025 30.27 854 25.22 7.8 46.1 64 1.4 34.5
22:40 1025 30.27 854 25.22 7.7 45.8 65 1.4 34.6
22:45 1025 30.27 854 25.22 7.5 45.4 66 1.5 34.6
22:50 1025 30.27 854 25.22 7.2 44.9 66 1.3 34.3
22:55 1025 30.27 854 25.22 7.1 44.8 66 1.3 34.3
23:00 1025 30.27 854 25.22 7.1 44.7 65 1 33.8
23:05 1025 30.27 854 25.22 7 44.7 66 1 33.9
23:10 1025 30.27 854 25.22 7.1 44.7 66 1.2 34.1
23:15 1025 30.27 854 25.22 7.1 44.8 65 1 33.9
23:20 1025 30.27 854 25.22 7 44.7 67 1.4 34.5
23:25 1025 30.27 854 25.22 6.7 44 68 1.3 34.3
23:30 1025 30.27 854 25.22 6.5 43.7 68 1.1 34
23:35 1025 30.27 854 25.22 6.5 43.6 70 1.4 34.5
23:40 1025 30.27 855 25.25 6.3 43.3 70 1.3 34.3
23:45 1025 30.27 855 25.25 6.2 43.2 70 1.1 34
23:50 1025 30.27 855 25.25 6.4 43.5 67 0.8 33.4
23:55 1025 30.27 855 25.25 6.6 43.9 67 0.9 33.6
24:00 1026 30.3 855 25.25 6.7 44 66 0.8 33.4